createdAt,value
2019-04-30T00:00:46.487Z,23.27
2019-04-30T00:05:57.327Z,26.97
2019-04-30T00:11:02.122Z,24.87
2019-04-30T00:16:08.308Z,26.07
2019-04-30T00:21:15.161Z,27.27
2019-04-30T00:26:20.901Z,30.27
2019-04-30T00:31:27.480Z,29.30
2019-04-30T00:36:34.202Z,33.23
2019-04-30T00:41:44.104Z,33.00
2019-04-30T00:46:48.325Z,37.80
2019-04-30T00:51:57.174Z,34.70
2019-04-30T00:57:04.437Z,31.43
2019-04-30T01:02:29.090Z,32.80
2019-04-30T01:07:26.827Z,30.50
2019-04-30T01:12:38.483Z,30.10
2019-04-30T01:17:40.877Z,29.83
2019-04-30T01:22:45.946Z,28.97
2019-04-30T01:27:51.516Z,31.70
2019-04-30T01:32:58.171Z,40.27
2019-04-30T01:38:04.068Z,29.50
2019-04-30T01:43:15.208Z,34.67
2019-04-30T01:48:20.249Z,37.20
2019-04-30T01:53:28.490Z,42.50
2019-04-30T01:58:40.857Z,32.97
2019-04-30T02:03:46.273Z,31.80
2019-04-30T02:08:51.323Z,28.27
2019-04-30T02:13:56.387Z,31.40
2019-04-30T02:19:01.773Z,33.27
2019-04-30T02:24:08.930Z,30.53
2019-04-30T02:29:14.151Z,31.97
2019-04-30T02:34:30.289Z,29.40
2019-04-30T02:39:35.826Z,25.40
2019-04-30T02:44:42.041Z,35.80
2019-04-30T02:49:52.910Z,34.47
2019-04-30T02:54:54.757Z,27.30
2019-04-30T03:00:14.161Z,27.20
2019-04-30T03:05:20.269Z,40.27
2019-04-30T03:10:26.064Z,27.87
2019-04-30T03:15:31.451Z,31.47
2019-04-30T03:20:54.560Z,34.03
2019-04-30T03:25:59.891Z,35.40
2019-04-30T03:31:05.713Z,29.60
2019-04-30T03:36:12.804Z,31.47
2019-04-30T03:41:19.906Z,34.60
2019-04-30T03:46:26.387Z,37.00
2019-04-30T03:51:31.370Z,28.67
2019-04-30T03:56:39.477Z,28.03
2019-04-30T04:02:05.946Z,25.23
2019-04-30T04:07:29.812Z,30.20
2019-04-30T04:12:34.163Z,32.30
2019-04-30T04:17:39.940Z,32.80
2019-04-30T04:22:45.537Z,34.70
2019-04-30T04:27:52.280Z,26.47
2019-04-30T04:32:59.681Z,25.93
2019-04-30T04:38:04.307Z,25.40
2019-04-30T04:43:10.458Z,39.27
2019-04-30T04:48:15.783Z,30.00
2019-04-30T04:53:21.431Z,39.20
2019-04-30T04:58:26.462Z,36.50
2019-04-30T05:03:34.922Z,37.00
2019-04-30T05:08:40.187Z,38.63
2019-04-30T05:13:52.753Z,40.23
2019-04-30T05:19:01.223Z,26.47
2019-04-30T05:24:09.054Z,23.60
2019-04-30T05:29:14.329Z,30.50
2019-04-30T05:34:19.462Z,31.97
2019-04-30T05:39:24.441Z,35.57
2019-04-30T05:44:29.921Z,35.77
2019-04-30T05:49:35.167Z,39.07
2019-04-30T05:54:40.510Z,35.67
2019-04-30T05:59:48.869Z,31.80
2019-04-30T06:04:55.463Z,26.03
2019-04-30T06:10:29.428Z,29.77
2019-04-30T06:15:50.749Z,35.20
2019-04-30T06:20:59.466Z,30.70
2019-04-30T06:26:36.594Z,31.27
2019-04-30T06:32:09.537Z,29.73
2019-04-30T06:37:19.417Z,38.60
2019-04-30T06:42:32.055Z,36.70
2019-04-30T06:47:39.062Z,29.80
2019-04-30T06:52:56.262Z,28.23
2019-04-30T06:57:56.383Z,29.20
2019-04-30T07:03:02.768Z,28.40
2019-04-30T07:08:38.865Z,32.00
2019-04-30T07:13:33.909Z,34.30
2019-04-30T07:18:39.110Z,41.00
2019-04-30T07:23:45.404Z,27.47
2019-04-30T07:28:54.835Z,23.90
2019-04-30T07:33:59.268Z,27.83
2019-04-30T07:39:31.221Z,29.93
2019-04-30T07:44:36.480Z,29.63
2019-04-30T07:49:49.435Z,33.97
2019-04-30T07:54:45.693Z,26.57
2019-04-30T07:59:51.529Z,29.60
2019-04-30T08:05:02.940Z,25.27
2019-04-30T08:10:09.061Z,26.60
2019-04-30T08:15:14.158Z,25.70
2019-04-30T08:20:21.369Z,20.80
2019-04-30T08:25:29.056Z,24.60
2019-04-30T08:30:34.493Z,22.27
2019-04-30T08:35:39.971Z,25.60
2019-04-30T08:40:55.513Z,21.80
2019-04-30T08:45:53.204Z,20.80
2019-04-30T08:51:02.155Z,21.70
2019-04-30T08:56:10.113Z,21.73
2019-04-30T09:01:16.567Z,21.40
2019-04-30T09:06:29.130Z,20.50
2019-04-30T09:11:43.114Z,23.00
2019-04-30T09:16:40.545Z,23.50
2019-04-30T09:21:48.883Z,24.13
2019-04-30T09:26:55.814Z,20.13
2019-04-30T09:32:01.036Z,21.80
2019-04-30T09:37:06.111Z,21.33
2019-04-30T09:42:11.713Z,18.63
2019-04-30T09:47:16.809Z,23.07
2019-04-30T09:52:23.160Z,21.97
2019-04-30T09:57:29.005Z,18.53
2019-04-30T10:02:34.456Z,18.48
2019-04-30T10:07:39.899Z,17.00
2019-04-30T10:12:45.583Z,17.10
2019-04-30T10:17:53.949Z,19.07
2019-04-30T10:23:01.530Z,19.80
2019-04-30T10:28:10.275Z,19.33
2019-04-30T10:33:15.545Z,19.33
2019-04-30T10:38:20.623Z,19.27
2019-04-30T10:43:26.216Z,20.73
2019-04-30T10:48:31.368Z,19.00
2019-04-30T10:53:36.533Z,18.33
2019-04-30T10:59:04.681Z,16.70
2019-04-30T11:04:11.329Z,16.80
2019-04-30T11:09:16.639Z,17.40
2019-04-30T11:14:21.848Z,16.77
2019-04-30T11:19:29.249Z,20.37
2019-04-30T11:24:38.171Z,18.70
2019-04-30T11:29:41.464Z,20.53
2019-04-30T11:34:47.830Z,15.67
2019-04-30T11:40:01.957Z,16.30
2019-04-30T11:45:10.820Z,15.68
2019-04-30T11:50:16.660Z,17.00
2019-04-30T12:00:36.813Z,16.20
2019-04-30T12:05:43.977Z,18.12
2019-04-30T12:11:15.409Z,18.95
2019-04-30T12:16:22.540Z,20.20
2019-04-30T12:21:28.280Z,18.02
2019-04-30T12:26:34.842Z,19.30
2019-04-30T12:31:41.754Z,15.28
2019-04-30T12:36:46.789Z,17.67
2019-04-30T12:41:52.331Z,15.60
2019-04-30T12:46:58.657Z,15.18
2019-04-30T12:52:15.384Z,15.23
2019-04-30T12:57:29.252Z,15.60
2019-04-30T13:02:34.273Z,14.55
2019-04-30T13:07:40.343Z,15.23
2019-04-30T13:12:46.760Z,18.30
2019-04-30T13:17:54.868Z,18.12
2019-04-30T13:23:02.137Z,15.85
2019-04-30T13:28:14.015Z,15.98
2019-04-30T13:33:31.517Z,17.90
2019-04-30T13:38:52.400Z,18.20
2019-04-30T13:43:59.063Z,17.53
2019-04-30T13:49:05.359Z,18.77
2019-04-30T13:54:10.410Z,16.80
2019-04-30T13:59:15.921Z,15.93
2019-04-30T14:04:40.125Z,16.90
2019-04-30T14:09:45.267Z,15.40
2019-04-30T14:14:50.964Z,17.37
2019-04-30T14:19:56.249Z,15.70
2019-04-30T14:25:01.697Z,17.30
2019-04-30T14:30:09.354Z,16.27
2019-04-30T14:35:14.594Z,15.50
2019-04-30T14:40:26.268Z,16.60
2019-04-30T14:45:42.627Z,22.05
2019-04-30T14:50:49.384Z,15.77
2019-04-30T14:56:19.647Z,18.07
2019-04-30T15:02:01.475Z,17.92
2019-04-30T15:13:19.514Z,15.93
2019-04-30T15:18:29.126Z,17.37
2019-04-30T15:24:09.436Z,14.65
2019-04-30T15:29:16.229Z,15.10
2019-04-30T15:34:24.017Z,15.30
2019-04-30T15:39:39.350Z,14.53
2019-04-30T15:44:45.969Z,15.30
2019-04-30T15:49:51.889Z,15.95
2019-04-30T15:54:59.209Z,15.25
2019-04-30T16:00:06.595Z,14.53
2019-04-30T16:05:33.574Z,14.93
2019-04-30T16:11:09.857Z,15.13
2019-04-30T16:16:14.038Z,15.43
2019-04-30T16:21:21.208Z,15.65
2019-04-30T16:26:31.612Z,14.60
2019-04-30T16:31:42.120Z,15.18
2019-04-30T16:36:46.163Z,14.33
2019-04-30T16:41:52.171Z,15.25
2019-04-30T16:47:12.997Z,15.48
2019-04-30T16:52:09.969Z,15.97
2019-04-30T16:57:17.595Z,15.20
2019-04-30T17:02:24.645Z,15.73
2019-04-30T17:08:19.341Z,15.55
2019-04-30T17:13:41.989Z,15.38
2019-04-30T17:19:04.917Z,15.48
2019-04-30T17:24:10.217Z,15.17
2019-04-30T17:29:15.764Z,14.70
2019-04-30T17:34:21.228Z,14.50
2019-04-30T17:39:26.896Z,14.58
2019-04-30T17:44:32.536Z,15.17
2019-04-30T17:55:49.166Z,15.00
2019-04-30T18:01:09.198Z,14.15
2019-04-30T18:06:16.682Z,15.10
2019-04-30T18:11:22.717Z,14.63
2019-04-30T18:16:28.682Z,14.87
2019-04-30T18:21:41.267Z,15.08
2019-04-30T18:26:53.746Z,15.30
2019-04-30T18:31:59.919Z,15.17
2019-04-30T18:37:05.223Z,18.33
2019-04-30T18:42:12.693Z,18.20
2019-04-30T18:47:18.903Z,17.65
2019-04-30T18:52:24.137Z,17.30
2019-04-30T18:57:29.575Z,17.90
2019-04-30T19:02:34.976Z,16.85
2019-04-30T19:07:56.001Z,18.60
2019-04-30T19:13:13.661Z,21.48
2019-04-30T19:18:29.907Z,19.92
2019-04-30T19:23:35.707Z,20.87
2019-04-30T19:28:49.997Z,20.48
2019-04-30T19:33:56.223Z,20.97
2019-04-30T19:39:01.341Z,22.52
2019-04-30T19:44:08.501Z,22.03
2019-04-30T19:49:13.742Z,23.50
2019-04-30T19:54:20.850Z,23.42
2019-04-30T19:59:26.371Z,23.50
2019-04-30T20:04:35.664Z,24.67
2019-04-30T20:09:38.618Z,23.73
2019-04-30T20:14:43.869Z,23.30
2019-04-30T20:19:49.241Z,23.02
2019-04-30T20:24:54.858Z,24.37
2019-04-30T20:30:02.776Z,25.82
2019-04-30T20:35:09.763Z,26.33
2019-04-30T20:40:18.486Z,26.80
2019-04-30T20:45:24.193Z,27.37
2019-04-30T20:50:29.339Z,29.87
2019-04-30T20:55:34.403Z,28.90
2019-04-30T21:00:39.935Z,29.82
2019-04-30T21:05:46.601Z,29.30
2019-04-30T21:10:56.851Z,28.00
2019-04-30T21:16:02.841Z,27.30
2019-04-30T21:21:09.950Z,28.65
2019-04-30T21:26:16.741Z,28.33
2019-04-30T21:31:56.182Z,28.40
2019-04-30T21:37:04.860Z,27.32
2019-04-30T21:42:10.095Z,27.97
2019-04-30T21:47:15.591Z,27.30
2019-04-30T21:52:20.907Z,29.27
2019-04-30T21:57:27.557Z,29.42
2019-04-30T22:02:34.006Z,30.40
2019-04-30T22:07:40.310Z,29.72
2019-04-30T22:12:46.260Z,29.42
2019-04-30T22:17:57.239Z,29.55
2019-04-30T22:23:04.001Z,31.05
2019-04-30T22:28:41.268Z,29.80
2019-04-30T22:34:10.132Z,31.52
2019-04-30T22:39:29.882Z,30.27
2019-04-30T22:44:37.948Z,32.28
2019-04-30T22:49:45.279Z,32.30
2019-04-30T22:54:58.729Z,32.38
2019-04-30T23:00:20.815Z,32.50
2019-04-30T23:05:26.090Z,33.50
2019-04-30T23:10:31.166Z,34.50
2019-04-30T23:15:37.070Z,37.20
2019-04-30T23:20:42.297Z,33.33
2019-04-30T23:25:47.455Z,36.05
2019-04-30T23:30:52.526Z,37.08
2019-04-30T23:35:58.174Z,43.05
2019-04-30T23:41:04.833Z,37.80
2019-04-30T23:46:10.277Z,41.28
2019-04-30T23:51:15.309Z,38.75
2019-04-30T23:56:20.379Z,38.92
